Time;durP1;ratioP1;P1;durP2;ratioP2;P2;SDS_P1;SDS_P2;PMS_P1;PMS_P2;Temp;Humidity;BMP_temperature;BMP_pressure;BME280_temperature;BME280_humidity;BME280_pressure;Samples;Min_cycle;Max_cycle;Signal;HPM_P1;HPM_P2
2023/06/08 00:01:57;;;;;;;5.78;4.88;;;17.50;99.90;;;;;;5027229;28;20213;-42
2023/06/08 00:04:30;;;;;;;5.88;5.20;;;17.40;99.90;;;;;;5049862;28;20206;-41
2023/06/08 00:06:57;;;;;;;5.72;5.30;;;17.40;99.90;;;;;;5036255;28;20174;-41
2023/06/08 00:09:23;;;;;;;5.63;5.00;;;17.40;99.90;;;;;;5030793;28;20208;-42
2023/06/08 00:11:49;;;;;;;5.75;5.18;;;17.40;99.90;;;;;;5014111;28;20210;-42
2023/06/08 00:14:17;;;;;;;5.80;5.30;;;17.30;99.90;;;;;;5027429;28;20209;-42
2023/06/08 00:16:43;;;;;;;5.55;5.00;;;17.30;99.90;;;;;;5030872;28;20175;-42
2023/06/08 00:19:08;;;;;;;6.22;4.93;;;17.30;99.90;;;;;;5039465;28;20196;-42
2023/06/08 00:21:37;;;;;;;5.20;4.72;;;17.20;99.90;;;;;;5023011;28;20260;-41
2023/06/08 00:24:02;;;;;;;5.05;4.60;;;17.20;99.90;;;;;;5020322;28;20212;-41
2023/06/08 00:26:28;;;;;;;5.47;4.97;;;17.10;99.90;;;;;;5033843;28;20179;-41
2023/06/08 00:28:55;;;;;;;5.22;4.72;;;17.10;99.90;;;;;;5028812;28;20177;-42
2023/06/08 00:31:21;;;;;;;4.83;4.43;;;17.00;99.90;;;;;;5032340;28;20210;-39
2023/06/08 00:33:46;;;;;;;5.50;4.87;;;16.90;99.90;;;;;;5033611;28;20202;-41
2023/06/08 00:36:15;;;;;;;5.68;5.15;;;16.80;99.90;;;;;;5030426;28;20197;-42
2023/06/08 00:38:41;;;;;;;4.85;4.45;;;16.70;99.90;;;;;;5033672;28;20189;-41
2023/06/08 00:41:07;;;;;;;5.70;5.10;;;16.60;99.90;;;;;;5026132;28;20210;-41
2023/06/08 00:43:33;;;;;;;5.80;5.20;;;16.60;99.90;;;;;;5024439;28;20233;-41
2023/06/08 00:46:01;;;;;;;5.63;4.97;;;16.50;99.90;;;;;;5019684;28;20240;-41
2023/06/08 00:48:29;;;;;;;5.77;5.27;;;16.50;99.90;;;;;;5031682;28;20190;-42
2023/06/08 00:50:57;;;;;;;5.47;5.07;;;16.50;99.90;;;;;;5025037;28;20174;-39
2023/06/08 00:53:24;;;;;;;6.17;5.57;;;16.60;99.90;;;;;;5044948;28;20201;-41
2023/06/08 00:55:53;;;;;;;5.67;5.10;;;16.60;99.90;;;;;;5028463;28;20203;-39
2023/06/08 00:58:19;;;;;;;6.13;5.60;;;16.70;99.90;;;;;;5030365;28;20182;-41
2023/06/08 01:00:46;;;;;;;5.73;5.23;;;16.70;99.90;;;;;;5031830;28;20351;-41
2023/06/08 01:03:15;;;;;;;7.83;4.90;;;16.80;99.90;;;;;;5033290;28;20178;-41
2023/06/08 01:05:44;;;;;;;6.13;4.90;;;16.70;99.90;;;;;;5041137;28;20222;-40
2023/06/08 01:08:22;;;;;;;6.80;5.43;;;16.70;99.90;;;;;;5032322;28;20186;-41
2023/06/08 01:11:14;;;;;;;5.93;5.33;;;16.60;99.90;;;;;;5026042;28;20324;-41
2023/06/08 01:13:45;;;;;;;5.20;4.70;;;16.50;99.90;;;;;;5041179;28;20177;-40
2023/06/08 01:16:15;;;;;;;6.20;5.60;;;16.40;99.90;;;;;;5033841;28;20194;-42
2023/06/08 01:18:43;;;;;;;5.57;5.07;;;16.30;99.90;;;;;;5029726;28;20214;-42
2023/06/08 01:21:30;;;;;;;5.77;5.07;;;16.20;99.90;;;;;;5038058;28;20293;-42
2023/06/08 01:24:15;;;;;;;5.40;4.93;;;16.10;99.90;;;;;;5021408;28;20204;-41
2023/06/08 01:26:49;;;;;;;5.17;4.77;;;16.10;99.90;;;;;;5027230;28;20231;-42
2023/06/08 01:29:17;;;;;;;6.67;5.10;;;16.00;99.90;;;;;;5049569;28;20185;-41
2023/06/08 01:31:42;;;;;;;5.40;4.90;;;15.90;99.90;;;;;;5023708;28;20190;-40
2023/06/08 01:34:12;;;;;;;5.33;4.93;;;15.80;99.90;;;;;;5021176;28;20218;-42
2023/06/08 01:37:11;;;;;;;5.23;4.83;;;15.70;99.90;;;;;;5032823;28;20170;-41
2023/06/08 01:40:01;;;;;;;5.10;4.70;;;15.70;99.90;;;;;;5019569;28;20199;-40
2023/06/08 01:42:28;;;;;;;5.53;5.03;;;15.70;99.90;;;;;;5039253;28;20244;-41
2023/06/08 01:45:03;;;;;;;5.10;4.70;;;15.70;99.90;;;;;;5029392;28;20202;-41
2023/06/08 01:47:40;;;;;;;6.87;4.80;;;15.70;99.90;;;;;;5047047;28;20178;-42
2023/06/08 01:50:07;;;;;;;5.50;5.00;;;15.70;99.90;;;;;;5049163;28;20188;-42
2023/06/08 01:52:34;;;;;;;6.97;5.37;;;15.60;99.90;;;;;;5030205;28;20241;-40
2023/06/08 01:54:59;;;;;;;5.17;4.77;;;15.50;99.90;;;;;;5013124;28;20203;-41
2023/06/08 01:57:25;;;;;;;5.73;5.23;;;15.50;99.90;;;;;;5044728;28;20185;-38
2023/06/08 01:59:51;;;;;;;6.00;5.40;;;15.30;99.90;;;;;;5039769;28;20177;-41
2023/06/08 02:02:17;;;;;;;7.10;5.60;;;15.30;99.90;;;;;;5028836;28;20210;-40
2023/06/08 02:04:43;;;;;;;5.43;4.93;;;15.30;99.90;;;;;;5040607;28;20255;-41
2023/06/08 02:07:08;;;;;;;5.50;5.00;;;15.20;99.90;;;;;;5040594;28;20192;-41
2023/06/08 02:09:34;;;;;;;5.77;5.27;;;15.20;99.90;;;;;;5024214;28;20186;-40
2023/06/08 02:12:06;;;;;;;5.57;5.17;;;15.20;99.90;;;;;;5023763;28;20189;-41
2023/06/08 02:14:32;;;;;;;6.10;5.20;;;15.10;99.90;;;;;;5029906;28;20313;-41
2023/06/08 02:17:00;;;;;;;5.57;5.07;;;15.10;99.90;;;;;;5011973;28;20265;-38
2023/06/08 02:19:30;;;;;;;6.40;5.27;;;15.20;99.90;;;;;;5014650;28;20186;-41
2023/06/08 02:21:58;;;;;;;5.60;5.00;;;15.10;99.90;;;;;;5052238;28;20233;-40
2023/06/08 02:24:24;;;;;;;5.83;5.33;;;15.10;99.90;;;;;;5043153;28;20202;-41
2023/06/08 02:26:52;;;;;;;6.27;5.67;;;14.90;99.90;;;;;;5039969;28;20189;-41
2023/06/08 02:29:19;;;;;;;5.80;5.20;;;14.90;99.90;;;;;;5032763;28;20685;-42
2023/06/08 02:31:45;;;;;;;5.50;4.97;;;14.90;99.90;;;;;;5020108;28;20186;-38
2023/06/08 02:34:11;;;;;;;5.97;5.47;;;14.90;99.90;;;;;;5052468;28;20218;-39
2023/06/08 02:36:39;;;;;;;6.10;5.07;;;15.00;99.90;;;;;;5027530;28;20182;-39
2023/06/08 02:39:07;;;;;;;5.37;4.77;;;14.90;99.90;;;;;;5052712;28;20235;-36
2023/06/08 02:41:33;;;;;;;9.30;5.53;;;14.90;99.90;;;;;;5049483;28;20209;-40
2023/06/08 02:43:59;;;;;;;6.60;5.97;;;14.90;99.90;;;;;;5015548;28;20202;-40
2023/06/08 02:46:25;;;;;;;7.03;5.90;;;14.80;99.90;;;;;;5017205;28;20182;-40
2023/06/08 02:48:51;;;;;;;7.13;6.07;;;14.80;99.90;;;;;;5045474;28;20251;-41
2023/06/08 02:51:19;;;;;;;6.60;6.00;;;14.70;99.90;;;;;;5043537;28;20190;-42
2023/06/08 02:53:45;;;;;;;6.67;5.97;;;14.70;99.90;;;;;;5044086;28;20197;-39
2023/06/08 02:56:11;;;;;;;8.07;6.27;;;14.70;99.90;;;;;;5032363;28;20183;-42
2023/06/08 02:58:41;;;;;;;6.50;5.90;;;14.80;99.90;;;;;;5039957;28;20178;-41
2023/06/08 03:01:14;;;;;;;5.87;5.27;;;14.80;99.90;;;;;;5029608;28;20228;-41
2023/06/08 03:04:17;;;;;;;6.57;5.73;;;14.80;99.90;;;;;;5052008;28;20201;-40
2023/06/08 03:06:54;;;;;;;6.30;5.73;;;14.80;99.90;;;;;;5032261;28;20224;-41
2023/06/08 03:09:28;;;;;;;6.23;5.70;;;14.80;99.90;;;;;;5015789;28;20201;-41
2023/06/08 03:11:55;;;;;;;6.63;5.93;;;14.90;99.90;;;;;;5025631;28;20179;-40
2023/06/08 03:14:28;;;;;;;5.93;5.43;;;14.80;99.90;;;;;;5042682;28;20203;-41
2023/06/08 03:16:57;;;;;;;7.23;6.60;;;14.80;99.90;;;;;;5039820;28;20186;-41
2023/06/08 03:19:25;;;;;;;8.07;5.57;;;14.80;99.90;;;;;;5040999;28;20186;-39
2023/06/08 03:21:51;;;;;;;8.23;6.17;;;14.70;99.90;;;;;;5026330;28;20259;-41
2023/06/08 03:24:20;;;;;;;6.73;6.03;;;14.70;99.90;;;;;;5043498;28;20221;-39
2023/06/08 03:26:46;;;;;;;7.40;6.37;;;14.70;99.90;;;;;;5030184;28;20179;-40
2023/06/08 03:29:14;;;;;;;7.10;5.97;;;14.70;99.90;;;;;;5039230;28;20218;-39
2023/06/08 03:31:40;;;;;;;6.90;6.27;;;14.70;99.90;;;;;;5026197;28;20181;-41
2023/06/08 03:34:14;;;;;;;7.03;6.03;;;14.70;99.90;;;;;;5042255;28;20218;-41
2023/06/08 03:36:40;;;;;;;8.87;6.33;;;14.60;99.90;;;;;;5051411;28;20182;-41
2023/06/08 03:39:16;;;;;;;6.77;6.00;;;14.60;99.90;;;;;;5031539;28;20186;-40
2023/06/08 03:41:42;;;;;;;6.97;6.27;;;14.70;99.90;;;;;;5034025;28;20209;-41
2023/06/08 03:44:09;;;;;;;7.73;6.33;;;14.80;99.90;;;;;;5028318;28;20198;-40
2023/06/08 03:46:35;;;;;;;6.13;5.53;;;14.70;99.90;;;;;;5049832;28;20181;-42
2023/06/08 03:49:02;;;;;;;6.27;5.67;;;14.60;99.90;;;;;;5035246;28;20182;-41
2023/06/08 03:51:28;;;;;;;6.30;5.77;;;14.40;99.90;;;;;;5016387;28;20668;-41
2023/06/08 03:53:54;;;;;;;7.13;5.27;;;14.40;99.90;;;;;;5032455;28;20269;-40
2023/06/08 03:56:21;;;;;;;6.60;6.00;;;14.30;99.90;;;;;;5022649;28;20209;-41
2023/06/08 03:58:48;;;;;;;6.33;5.73;;;14.20;99.90;;;;;;5035295;28;20185;-39
2023/06/08 04:01:15;;;;;;;5.70;5.20;;;14.30;99.90;;;;;;5042644;28;20213;-41
2023/06/08 04:03:41;;;;;;;6.20;5.70;;;14.30;99.90;;;;;;5050250;28;20185;-41
2023/06/08 04:06:09;;;;;;;6.03;5.40;;;14.40;99.90;;;;;;5032607;28;20186;-40
2023/06/08 04:08:40;;;;;;;5.97;5.47;;;14.50;99.90;;;;;;5025583;28;20175;-40
2023/06/08 04:11:08;;;;;;;5.23;4.83;;;14.50;99.90;;;;;;5050817;28;20186;-41
2023/06/08 04:13:39;;;;;;;5.83;5.20;;;14.60;99.90;;;;;;5047764;28;20217;-40
2023/06/08 04:16:09;;;;;;;5.57;5.07;;;14.70;99.90;;;;;;5022712;28;20317;-40
2023/06/08 04:18:39;;;;;;;5.37;4.97;;;14.70;99.90;;;;;;5042581;28;20174;-41
2023/06/08 04:21:07;;;;;;;6.00;5.00;;;14.70;99.90;;;;;;5034048;28;20208;-41
2023/06/08 04:23:34;;;;;;;6.77;5.60;;;14.80;99.90;;;;;;5048571;28;20216;-41
2023/06/08 04:26:02;;;;;;;6.90;5.70;;;14.90;99.90;;;;;;5030758;28;20653;-41
2023/06/08 04:28:29;;;;;;;5.90;5.40;;;14.90;99.90;;;;;;5030170;28;20182;-41
2023/06/08 04:30:58;;;;;;;5.93;5.33;;;14.90;99.90;;;;;;5036221;28;20182;-40
2023/06/08 04:33:27;;;;;;;7.87;5.43;;;14.90;99.90;;;;;;5025427;28;20204;-39
2023/06/08 04:35:53;;;;;;;6.10;5.60;;;14.90;99.90;;;;;;5045168;28;20203;-42
2023/06/08 04:38:20;;;;;;;7.23;6.53;;;15.00;99.90;;;;;;5026421;28;20190;-40
2023/06/08 04:40:53;;;;;;;7.67;6.97;;;15.00;99.90;;;;;;5021867;28;20210;-39
2023/06/08 04:43:25;;;;;;;7.40;6.50;;;15.00;99.90;;;;;;5029705;28;20202;-41
2023/06/08 04:46:00;;;;;;;7.33;6.63;;;15.10;99.90;;;;;;5025391;28;20201;-41
2023/06/08 04:48:28;;;;;;;7.53;6.83;;;15.10;99.90;;;;;;5033392;28;20185;-42
2023/06/08 04:51:04;;;;;;;8.43;6.50;;;15.20;99.90;;;;;;5045333;28;20273;-41
2023/06/08 04:53:34;;;;;;;7.03;6.30;;;15.20;99.90;;;;;;5038304;28;20185;-42
2023/06/08 04:56:02;;;;;;;7.13;6.43;;;15.20;99.90;;;;;;5035810;28;20182;-41
2023/06/08 04:58:32;;;;;;;8.03;6.50;;;15.20;99.90;;;;;;5015447;28;20182;-41
2023/06/08 05:00:58;;;;;;;7.23;6.53;;;15.20;99.90;;;;;;5035697;28;20255;-41
2023/06/08 05:03:25;;;;;;;7.63;7.03;;;15.20;99.90;;;;;;5016133;28;20179;-41
2023/06/08 05:05:51;;;;;;;8.00;6.50;;;15.30;99.90;;;;;;5038090;28;20255;-41
2023/06/08 05:08:18;;;;;;;6.87;6.23;;;15.40;99.90;;;;;;5031132;28;20282;-41
2023/06/08 05:10:43;;;;;;;7.50;6.70;;;15.60;99.90;;;;;;5032871;28;20265;-42
2023/06/08 05:13:09;;;;;;;6.70;6.20;;;15.70;99.90;;;;;;5050513;28;20269;-40
2023/06/08 05:15:37;;;;;;;7.23;6.40;;;15.70;99.90;;;;;;5040405;28;20225;-41
2023/06/08 05:18:03;;;;;;;6.73;6.03;;;15.80;99.90;;;;;;5037807;28;20191;-40
2023/06/08 05:20:29;;;;;;;7.23;6.10;;;15.90;99.90;;;;;;5014249;28;20210;-40
2023/06/08 05:22:55;;;;;;;6.90;6.30;;;16.00;99.90;;;;;;5036675;28;20174;-40
2023/06/08 05:25:21;;;;;;;7.67;6.20;;;16.10;99.90;;;;;;5030543;28;20313;-39
2023/06/08 05:27:47;;;;;;;6.97;6.40;;;16.20;99.90;;;;;;5012735;28;20182;-41
2023/06/08 05:30:13;;;;;;;8.10;6.17;;;16.30;99.90;;;;;;5029535;28;20190;-41
2023/06/08 05:32:39;;;;;;;7.27;6.57;;;16.40;99.90;;;;;;5033369;28;20637;-41
2023/06/08 05:35:05;;;;;;;6.43;5.90;;;16.30;99.90;;;;;;5049081;28;20213;-41
2023/06/08 05:37:31;;;;;;;8.10;6.57;;;16.30;99.90;;;;;;5049411;28;20217;-41
2023/06/08 05:39:57;;;;;;;7.17;6.30;;;16.30;99.90;;;;;;5050721;28;20220;-39
2023/06/08 05:42:23;;;;;;;7.80;5.77;;;16.40;99.90;;;;;;5041054;28;20233;-40
2023/06/08 05:44:49;;;;;;;7.03;6.00;;;16.40;99.90;;;;;;5030262;28;20198;-40
2023/06/08 05:47:15;;;;;;;6.33;5.80;;;16.40;99.90;;;;;;5037899;28;20194;-41
2023/06/08 05:49:41;;;;;;;6.87;6.20;;;16.40;99.90;;;;;;5046354;28;20189;-40
2023/06/08 05:52:07;;;;;;;6.40;5.80;;;16.40;99.90;;;;;;5020506;28;20269;-40
2023/06/08 05:54:32;;;;;;;5.97;5.37;;;16.40;99.90;;;;;;5038507;28;20252;-40
2023/06/08 05:56:58;;;;;;;7.17;5.43;;;16.40;99.90;;;;;;5036754;28;20175;-42
2023/06/08 05:59:24;;;;;;;6.03;5.53;;;16.40;99.90;;;;;;5028690;28;20201;-40
2023/06/08 06:01:50;;;;;;;5.93;5.43;;;16.40;99.90;;;;;;5012628;28;20210;-41
2023/06/08 06:04:16;;;;;;;6.57;5.97;;;16.30;99.90;;;;;;5028658;28;20202;-41
2023/06/08 06:06:42;;;;;;;7.57;6.00;;;16.20;99.90;;;;;;5029594;28;20233;-41
2023/06/08 06:09:11;;;;;;;6.30;5.70;;;16.20;99.90;;;;;;5024034;28;20190;-40
2023/06/08 06:11:37;;;;;;;6.30;5.33;;;16.10;99.90;;;;;;5047536;28;20182;-40
2023/06/08 06:14:02;;;;;;;8.50;5.97;;;16.20;99.90;;;;;;5048659;28;20282;-41
2023/06/08 06:16:28;;;;;;;6.63;6.03;;;16.20;99.90;;;;;;5039022;28;20268;-38
2023/06/08 06:18:54;;;;;;;6.90;6.03;;;16.20;99.90;;;;;;5033761;28;20201;-41
2023/06/08 06:21:20;;;;;;;6.77;6.17;;;16.30;99.90;;;;;;5040921;28;20209;-40
2023/06/08 06:23:46;;;;;;;6.87;6.23;;;16.30;99.90;;;;;;5037452;28;20183;-40
2023/06/08 06:26:12;;;;;;;6.67;6.03;;;16.40;99.90;;;;;;5029219;28;20183;-41
2023/06/08 06:28:40;;;;;;;6.70;6.03;;;16.50;99.90;;;;;;5014565;28;20246;-41
2023/06/08 06:31:06;;;;;;;9.07;6.60;;;16.60;99.90;;;;;;5034877;28;20190;-39
2023/06/08 06:33:32;;;;;;;7.40;6.60;;;16.70;99.90;;;;;;5046680;28;20198;-41
2023/06/08 06:35:58;;;;;;;7.13;6.53;;;16.90;99.90;;;;;;5035393;28;20197;-41
2023/06/08 06:38:25;;;;;;;6.73;6.07;;;17.10;99.90;;;;;;5038711;28;20193;-39
2023/06/08 06:40:52;;;;;;;6.70;6.15;;;17.40;99.90;;;;;;5048620;28;20206;-40
2023/06/08 06:43:22;;;;;;;7.20;6.60;;;17.60;99.90;;;;;;5040694;28;20284;-41
2023/06/08 06:46:02;;;;;;;6.97;6.32;;;17.70;99.90;;;;;;5027742;28;20174;-41
2023/06/08 06:48:28;;;;;;;6.68;6.07;;;17.90;99.90;;;;;;5015590;28;20183;-40
2023/06/08 06:50:54;;;;;;;6.30;5.70;;;18.00;99.90;;;;;;5044061;28;20182;-42
2023/06/08 06:53:19;;;;;;;6.10;5.35;;;18.20;99.90;;;;;;5012090;28;20180;-41
2023/06/08 06:55:45;;;;;;;6.70;6.00;;;18.30;99.90;;;;;;5031730;28;20197;-41
2023/06/08 06:58:12;;;;;;;6.60;6.00;;;18.30;99.90;;;;;;5040305;28;20186;-40
2023/06/08 07:00:39;;;;;;;5.47;4.97;;;18.40;99.90;;;;;;5039550;28;20222;-41
2023/06/08 07:03:06;;;;;;;6.22;5.63;;;18.40;99.90;;;;;;5043138;28;20182;-37
2023/06/08 07:05:36;;;;;;;6.03;5.38;;;18.30;99.90;;;;;;5048622;28;20205;-41
2023/06/08 07:08:02;;;;;;;5.47;4.93;;;18.30;99.90;;;;;;5021114;28;20194;-42
2023/06/08 07:10:29;;;;;;;6.43;5.72;;;18.30;99.90;;;;;;5044790;28;20274;-42
2023/06/08 07:12:56;;;;;;;6.53;5.93;;;18.30;99.90;;;;;;5043924;28;20209;-40
2023/06/08 07:15:22;;;;;;;6.82;6.15;;;18.30;99.90;;;;;;5043312;28;20209;-40
2023/06/08 07:17:48;;;;;;;5.85;5.35;;;18.40;99.90;;;;;;5026914;28;20181;-40
2023/06/08 07:20:14;;;;;;;5.65;5.18;;;18.60;99.90;;;;;;5051788;28;20186;-41
2023/06/08 07:22:40;;;;;;;5.82;5.32;;;18.80;99.90;;;;;;5040613;28;20182;-41
2023/06/08 07:25:07;;;;;;;5.28;4.78;;;19.00;99.90;;;;;;5023689;28;20206;-41
2023/06/08 07:27:33;;;;;;;5.15;4.65;;;19.30;99.90;;;;;;5048033;28;20182;-41
2023/06/08 07:29:58;;;;;;;5.10;4.60;;;19.50;99.90;;;;;;5039168;28;20174;-40
2023/06/08 07:32:26;;;;;;;5.50;5.00;;;19.50;99.90;;;;;;5039864;28;20189;-41
2023/06/08 07:34:52;;;;;;;5.13;4.72;;;19.60;99.90;;;;;;5039893;28;20218;-41
2023/06/08 07:37:18;;;;;;;6.07;5.47;;;19.70;99.90;;;;;;5048303;28;20239;-40
2023/06/08 07:39:44;;;;;;;4.95;4.53;;;19.60;99.90;;;;;;5023104;28;20214;-42
2023/06/08 07:42:10;;;;;;;6.85;5.28;;;19.70;99.90;;;;;;5039449;28;20230;-40
2023/06/08 07:44:36;;;;;;;5.68;5.20;;;19.90;99.90;;;;;;5039649;28;20233;-41
2023/06/08 07:47:02;;;;;;;5.50;5.07;;;19.90;99.90;;;;;;5028550;28;20178;-42
2023/06/08 07:49:31;;;;;;;6.70;5.38;;;20.10;99.90;;;;;;5043189;28;20181;-38
2023/06/08 07:51:56;;;;;;;6.47;5.30;;;20.10;99.90;;;;;;5042913;28;20189;-40
2023/06/08 07:54:24;;;;;;;6.43;5.28;;;20.30;99.90;;;;;;5026277;28;20203;-42
2023/06/08 07:56:50;;;;;;;6.40;5.80;;;20.40;99.90;;;;;;5051031;28;20182;-39
2023/06/08 07:59:16;;;;;;;6.30;5.57;;;20.50;99.90;;;;;;5043934;28;20185;-41
2023/06/08 08:01:42;;;;;;;5.60;5.10;;;20.50;99.90;;;;;;5043536;28;20281;-41
2023/06/08 08:04:09;;;;;;;6.18;4.72;;;20.60;99.90;;;;;;5051011;28;20205;-42
2023/06/08 08:06:35;;;;;;;5.60;5.00;;;20.70;99.90;;;;;;5043941;28;20186;-41
2023/06/08 08:09:03;;;;;;;4.65;3.97;;;20.90;99.90;;;;;;5042864;28;20174;-41
2023/06/08 08:11:28;;;;;;;4.88;4.38;;;21.00;99.90;;;;;;5033235;28;20179;-41
2023/06/08 08:13:57;;;;;;;4.47;3.83;;;21.10;99.90;;;;;;5043499;28;20208;-41
2023/06/08 08:16:24;;;;;;;5.28;4.45;;;21.00;99.90;;;;;;5025607;28;20182;-40
2023/06/08 08:18:52;;;;;;;6.70;4.28;;;21.20;99.90;;;;;;5022680;28;20183;-42
2023/06/08 08:21:17;;;;;;;4.82;4.20;;;21.40;99.90;;;;;;5046428;28;20210;-41
2023/06/08 08:23:43;;;;;;;5.15;4.13;;;21.60;99.90;;;;;;5030422;28;20179;-42
2023/06/08 08:26:09;;;;;;;4.43;4.03;;;21.80;99.90;;;;;;5045282;28;20201;-42
2023/06/08 08:28:38;;;;;;;4.28;3.80;;;22.00;99.90;;;;;;5033639;28;20279;-39
2023/06/08 08:31:04;;;;;;;4.55;4.10;;;22.30;99.90;;;;;;5037040;28;20222;-41
2023/06/08 08:33:30;;;;;;;4.60;4.20;;;22.40;99.90;;;;;;5030346;28;20283;-41
2023/06/08 08:35:56;;;;;;;4.50;3.78;;;22.60;99.90;;;;;;5038934;28;20182;-42
2023/06/08 08:38:21;;;;;;;3.90;3.58;;;22.90;99.90;;;;;;5021855;28;20197;-41
2023/06/08 08:40:51;;;;;;;5.13;3.90;;;23.20;99.90;;;;;;5022006;28;20207;-41
2023/06/08 08:43:23;;;;;;;4.15;3.70;;;23.50;99.90;;;;;;5021968;28;20187;-42
2023/06/08 08:45:50;;;;;;;3.97;3.67;;;23.80;99.90;;;;;;5025811;28;20201;-41
2023/06/08 08:48:21;;;;;;;4.30;3.90;;;24.00;99.90;;;;;;5050196;28;20273;-42
2023/06/08 08:50:57;;;;;;;3.83;3.47;;;24.00;99.90;;;;;;5033474;28;20185;-41
2023/06/08 08:53:30;;;;;;;4.47;3.97;;;24.30;99.90;;;;;;5042254;28;20206;-42
2023/06/08 08:56:03;;;;;;;4.38;3.90;;;24.40;99.90;;;;;;5050215;28;20182;-41
2023/06/08 08:58:29;;;;;;;4.28;3.95;;;24.40;99.90;;;;;;5033252;28;20179;-42
2023/06/08 09:00:55;;;;;;;4.20;3.90;;;24.70;99.90;;;;;;5037365;28;20202;-42
2023/06/08 09:03:21;;;;;;;4.18;3.78;;;24.80;99.90;;;;;;5039337;28;20189;-41
2023/06/08 09:05:51;;;;;;;4.22;3.80;;;24.90;99.90;;;;;;5030221;28;20283;-42
2023/06/08 09:08:17;;;;;;;5.38;3.65;;;25.10;99.90;;;;;;5045712;28;20189;-42
2023/06/08 09:10:43;;;;;;;4.28;3.88;;;25.30;99.90;;;;;;5047003;28;20182;-42
2023/06/08 09:13:20;;;;;;;4.13;3.72;;;25.70;99.90;;;;;;5019718;28;20189;-42
2023/06/08 09:15:46;;;;;;;3.75;3.42;;;25.90;99.90;;;;;;5025362;28;20231;-41
2023/06/08 09:18:18;;;;;;;3.97;3.22;;;26.10;99.90;;;;;;5018512;28;20178;-42
2023/06/08 09:20:45;;;;;;;3.55;3.15;;;26.00;99.90;;;;;;5024016;28;20212;-42
2023/06/08 09:23:24;;;;;;;4.20;3.50;;;26.10;99.90;;;;;;5018731;28;20186;-42
2023/06/08 09:25:52;;;;;;;4.20;3.90;;;26.20;99.90;;;;;;5016267;28;20198;-42
2023/06/08 09:28:25;;;;;;;3.97;3.67;;;26.40;99.90;;;;;;5032586;28;20211;-42
2023/06/08 09:30:52;;;;;;;3.92;3.60;;;26.40;99.90;;;;;;5021284;28;20186;-42
2023/06/08 09:33:20;;;;;;;5.68;3.90;;;26.60;99.90;;;;;;5022689;28;20212;-43
2023/06/08 09:36:07;;;;;;;3.70;3.40;;;26.80;99.90;;;;;;5032787;28;20358;-42
2023/06/08 09:38:34;;;;;;;4.20;3.80;;;27.10;99.90;;;;;;5051038;28;20282;-42
2023/06/08 09:41:21;;;;;;;3.60;3.33;;;27.20;99.90;;;;;;5032792;28;20290;-42
2023/06/08 09:43:51;;;;;;;3.80;3.50;;;27.40;99.90;;;;;;5032733;28;20181;-42
2023/06/08 09:46:46;;;;;;;4.07;3.53;;;27.60;99.90;;;;;;5032777;28;20178;-42
2023/06/08 09:49:16;;;;;;;3.80;3.50;;;27.60;99.90;;;;;;5032842;28;20189;-42
2023/06/08 09:51:47;;;;;;;4.25;3.50;;;27.50;99.90;;;;;;5049309;28;20181;-42
2023/06/08 09:54:16;;;;;;;4.10;3.80;;;27.60;99.90;;;;;;5049494;28;20316;-42
2023/06/08 09:56:52;;;;;;;3.75;3.45;;;27.70;99.90;;;;;;5032525;28;20182;-42
2023/06/08 09:59:20;;;;;;;3.80;3.50;;;27.80;99.90;;;;;;5049311;28;20190;-42
2023/06/08 10:01:57;;;;;;;3.90;3.60;;;28.10;99.90;;;;;;5021552;28;20206;-42
2023/06/08 10:04:31;;;;;;;4.03;3.58;;;28.10;99.90;;;;;;5029136;28;20307;-42
2023/06/08 10:07:03;;;;;;;4.70;4.30;;;27.80;99.90;;;;;;5025562;28;20178;-42
2023/06/08 10:09:36;;;;;;;5.05;3.78;;;27.90;99.90;;;;;;5049174;28;20312;-42
2023/06/08 10:12:02;;;;;;;3.78;3.47;;;27.80;99.90;;;;;;5049195;28;20200;-42
2023/06/08 10:14:28;;;;;;;4.25;3.70;;;28.20;99.90;;;;;;5049041;28;20213;-42
2023/06/08 10:16:59;;;;;;;4.75;4.03;;;28.50;99.90;;;;;;5049774;28;20186;-43
2023/06/08 10:19:26;;;;;;;4.88;3.67;;;28.60;99.20;;;;;;5050578;28;20190;-42
2023/06/08 10:21:53;;;;;;;4.50;4.07;;;28.40;99.10;;;;;;5032196;28;20304;-42
2023/06/08 10:24:21;;;;;;;5.13;3.95;;;28.00;99.90;;;;;;5032746;28;20359;-41
2023/06/08 10:26:50;;;;;;;4.07;3.67;;;27.70;99.90;;;;;;5032483;28;20174;-42
2023/06/08 10:29:17;;;;;;;5.13;4.15;;;27.40;99.90;;;;;;5031837;28;20212;-42
2023/06/08 10:31:50;;;;;;;3.80;3.50;;;27.10;99.90;;;;;;5040814;28;20186;-42
2023/06/08 10:34:17;;;;;;;4.70;4.30;;;26.60;99.90;;;;;;5025504;28;20316;-41
2023/06/08 10:36:43;;;;;;;4.18;3.78;;;26.50;99.90;;;;;;5047788;28;20196;-42
2023/06/08 10:39:14;;;;;;;4.70;4.30;;;26.50;99.90;;;;;;5050202;28;20205;-42
2023/06/08 10:41:57;;;;;;;4.40;4.00;;;26.30;99.90;;;;;;5034995;28;20301;-42
2023/06/08 10:44:31;;;;;;;5.28;3.70;;;26.20;99.90;;;;;;5052664;28;20209;-42
2023/06/08 10:47:01;;;;;;;5.97;4.43;;;26.10;99.90;;;;;;5032782;28;20186;-42
2023/06/08 10:49:35;;;;;;;5.57;4.10;;;26.00;99.90;;;;;;5049473;28;20663;-41
2023/06/08 10:52:03;;;;;;;4.97;4.05;;;25.40;99.90;;;;;;5052226;28;20200;-40
2023/06/08 10:54:30;;;;;;;6.90;4.32;;;24.90;99.90;;;;;;5035736;28;20202;-41
2023/06/08 10:56:58;;;;;;;5.10;3.97;;;24.10;99.90;;;;;;5053552;28;20209;-41
2023/06/08 10:59:34;;;;;;;4.75;4.22;;;23.80;99.90;;;;;;5052168;28;20181;-42
2023/06/08 11:02:07;;;;;;;4.45;3.97;;;23.50;99.90;;;;;;5032168;28;20281;-41
2023/06/08 11:04:34;;;;;;;5.40;4.20;;;23.30;99.90;;;;;;5051838;28;20285;-40
2023/06/08 11:07:04;;;;;;;4.70;4.10;;;23.20;99.90;;;;;;5035375;28;20174;-39
2023/06/08 11:09:32;;;;;;;4.85;4.10;;;23.00;99.90;;;;;;5052507;28;20256;-41
2023/06/08 11:11:59;;;;;;;5.53;4.05;;;23.00;99.90;;;;;;5035661;28;20205;-42
2023/06/08 11:14:25;;;;;;;4.20;3.80;;;23.00;99.90;;;;;;5035450;28;20237;-42
2023/06/08 11:16:53;;;;;;;4.68;4.22;;;22.90;99.90;;;;;;5052025;28;20178;-41
2023/06/08 11:19:20;;;;;;;3.92;3.53;;;22.90;99.90;;;;;;5051993;28;20768;-42
2023/06/08 11:21:50;;;;;;;3.88;3.58;;;23.00;99.90;;;;;;5043495;28;20213;-40
2023/06/08 11:24:20;;;;;;;6.57;3.97;;;23.10;99.90;;;;;;5043852;28;20293;-40
2023/06/08 11:26:46;;;;;;;4.10;3.75;;;23.10;99.90;;;;;;5034565;28;20197;-41
2023/06/08 11:29:13;;;;;;;8.85;3.95;;;23.20;99.90;;;;;;5035127;28;20185;-40
2023/06/08 11:31:42;;;;;;;4.50;3.88;;;23.40;99.90;;;;;;5042831;28;20189;-41
2023/06/08 11:34:13;;;;;;;4.43;4.03;;;23.50;99.90;;;;;;5051586;28;20218;-41
2023/06/08 11:36:39;;;;;;;4.53;4.07;;;23.60;99.90;;;;;;5033525;28;20187;-39
2023/06/08 11:39:07;;;;;;;4.47;4.07;;;23.70;99.90;;;;;;5034954;28;20185;-42
2023/06/08 11:41:33;;;;;;;4.88;3.75;;;23.80;99.90;;;;;;5051286;28;20206;-42
2023/06/08 11:43:59;;;;;;;3.88;3.45;;;23.70;99.90;;;;;;5051144;28;20213;-41
2023/06/08 11:46:26;;;;;;;4.82;3.53;;;23.70;99.90;;;;;;5051407;28;20185;-41
2023/06/08 11:48:52;;;;;;;3.92;3.63;;;23.90;99.90;;;;;;5027042;28;20174;-42
2023/06/08 11:51:18;;;;;;;4.00;3.60;;;24.20;99.90;;;;;;5034799;28;20190;-42
2023/06/08 11:53:47;;;;;;;3.80;3.40;;;24.40;99.90;;;;;;5034322;28;20217;-42
2023/06/08 11:56:13;;;;;;;3.50;3.17;;;24.60;99.90;;;;;;5034774;28;20188;-41
2023/06/08 11:58:40;;;;;;;4.15;3.20;;;24.70;99.90;;;;;;5034082;28;20193;-42
2023/06/08 12:01:07;;;;;;;4.15;3.00;;;24.80;99.90;;;;;;5034305;28;20210;-41
2023/06/08 12:03:42;;;;;;;3.28;2.90;;;24.70;99.90;;;;;;5052458;28;20186;-42
2023/06/08 12:06:08;;;;;;;4.13;3.17;;;24.80;99.90;;;;;;5033584;28;20182;-42
2023/06/08 12:08:34;;;;;;;3.33;3.00;;;24.80;99.90;;;;;;5031831;28;20278;-42
2023/06/08 12:11:08;;;;;;;3.88;3.03;;;24.80;99.90;;;;;;5034187;28;20277;-41
2023/06/08 12:13:34;;;;;;;4.05;3.10;;;24.80;99.90;;;;;;5052181;28;20211;-41
2023/06/08 12:16:06;;;;;;;3.17;2.88;;;24.80;99.90;;;;;;5034392;28;20193;-42
2023/06/08 12:18:43;;;;;;;3.40;3.00;;;24.80;99.90;;;;;;5051094;28;20186;-42
2023/06/08 12:21:12;;;;;;;3.97;3.20;;;24.80;99.90;;;;;;5034053;28;20208;-40
2023/06/08 12:23:37;;;;;;;3.38;2.97;;;24.80;99.90;;;;;;5033940;28;20184;-41
2023/06/08 12:26:03;;;;;;;3.38;3.03;;;24.80;99.90;;;;;;5051017;28;20186;-42
2023/06/08 12:28:31;;;;;;;3.80;3.40;;;24.90;99.90;;;;;;5051791;28;20218;-41
2023/06/08 12:31:00;;;;;;;4.18;3.53;;;24.90;99.90;;;;;;5033433;28;20178;-40
2023/06/08 12:33:29;;;;;;;3.72;3.42;;;25.10;99.90;;;;;;5033983;28;20209;-41
2023/06/08 12:35:54;;;;;;;3.88;3.58;;;25.00;99.90;;;;;;5025718;28;20198;-41
2023/06/08 12:38:21;;;;;;;4.35;3.20;;;25.00;99.90;;;;;;5051551;28;20184;-41
2023/06/08 12:40:48;;;;;;;3.40;3.10;;;25.10;99.90;;;;;;5050492;28;20213;-41
2023/06/08 12:43:24;;;;;;;4.03;3.58;;;25.20;99.90;;;;;;5026897;28;20174;-40
2023/06/08 12:45:50;;;;;;;3.67;3.38;;;25.20;99.90;;;;;;5033761;28;20202;-41
2023/06/08 12:48:17;;;;;;;3.67;3.22;;;25.20;99.90;;;;;;5027175;28;20241;-42
2023/06/08 12:50:43;;;;;;;4.35;3.30;;;25.20;99.90;;;;;;5048871;28;20214;-42
2023/06/08 12:53:09;;;;;;;3.95;3.28;;;25.40;99.90;;;;;;5026233;28;20197;-42
2023/06/08 12:55:35;;;;;;;3.25;2.95;;;25.70;99.90;;;;;;5047854;28;20194;-40